St. Catharines, Ontario

6:05 PM EST on January 26, 2015 (GMT -0500)
The Fruit Shack | Change Station
CLOSE
Current Station
Personal Weather Station
Location: Niagara-on-the-Lake, ONTARIO
Elevation: 302 ft
Nearby Weather Stations

Elev 302 ft 43.21 °N, 79.13 °W | Updated 12 minutes ago

Light Snow
Light Snow Low Drifting Snow
19.2 °F
Feels Like 9 °F
N
9.0
Wind Variable Wind from NE
Gusts 19.0 mph

Tomorrow is forecast to be nearly the same temperature as today.

Today
High -- | Low -- °F
--% Chance of Precip.
Yesterday
High -- | Low -- °F
Precip. -- in
7:38 AM 5:20 PM
Waxing Crescent, 47% visible
Pressure 29.96 in
Visibility 2.0 miles
Clouds Mostly Cloudy 1400 ft
Overcast 3000 ft
Windchill 9 °F
Dew Point 16 °F
Humidity 86%
Rainfall 0.00 in
Snow Depth Not available.
UV 0 out of 12
Pollen Not available.
Air Quality Not available.
Flu Activity Not available.
METAR CYSN 262200Z 06017G25KT 2SM -SN DRSN BKN014 OVC030 M07/M10 A2994 RMK SN1SC5SC2 SLP144

More Conditions Fewer Conditions

Pressure 29.96 in
Visibility 2.0 miles
Clouds Mostly Cloudy 1400 ft
Overcast 3000 ft
Windchill 9 °F
Dew Point 16 °F
Humidity 86%
Rainfall 0.00 in
Snow Depth Not available.
UV 0 out of 12
Pollen Not available.
Air Quality Not available.
Flu Activity Not available.
METAR CYSN 262200Z 06017G25KT 2SM -SN DRSN BKN014 OVC030 M07/M10 A2994 RMK SN1SC5SC2 SLP144

More Conditions Fewer Conditions

10-Day Weather Forecast

Almanac

Astronomy

Jan. 26, 2015 Rise Set
Actual Time
Civil Twilight
Nautical Twilight
Astronomical Twilight
Moon
Length of Visible Light
Length of Day
Tomorrow will be .
, % of the Moon is Illuminated

Today's Extremes

Country Highs Country Lows

Community

WunderPhotos

Upload Photos

1,790,392 photos uploaded!

WunderBlogs® & News

Nearby

Air Quality

  Air Quality AQ Index Pollutant
Not available.

Snow Depth

Station Depth Elevation

Earthquake Activity

City Distance Mag. Time & Date
Minimum magnitude displayed is 2.5.

Coastal Water Temperatures

Place Temperature

Nearby Weather Stations